Greyabbey, United Kingdom
Current Conditions -  °F | °C
As of 7:20 AM on Sunday 23 Nov 2014 (Local Time) from EGAC Reporting Station
Few Clouds Few Clouds  
Wind Chill: -2°   Ceiling: Unl
Heat Index:   Visibility: 6mi
Dew Point:   Wind: 8mph
Humidity: 93%   Direction: 200°SSW
Pressure: 30.06"   Gusts: NA
Location:  54.53°N, 5.57°W
Report Text: EGAC 230720Z 20007KT 9999 FEW011 02/01 Q1018
Loading
Personal Weather Stations






























Interactive Weather Map New forecast layout! Learn more

10-Day Weather Forecast

Advertisements
Track Severe Weather on mobile